Time;durP1;ratioP1;P1;durP2;ratioP2;P2;SDS_P1;SDS_P2;PMS_P1;PMS_P2;Temp;Humidity;BMP_temperature;BMP_pressure;BME280_temperature;BME280_humidity;BME280_pressure;Samples;Min_cycle;Max_cycle;Signal;HPM_P1;HPM_P2
2022/02/26 00:01:36;;;;;;;10.57;2.28;;;;;;;4.70;69.30;103349.91;4766045;29;20391;-51
2022/02/26 00:04:01;;;;;;;15.65;2.38;;;;;;;4.65;69.63;103357.31;4773174;29;20070;-53
2022/02/26 00:06:26;;;;;;;11.07;3.08;;;;;;;4.66;69.00;103359.13;4769560;29;20059;-55
2022/02/26 00:08:53;;;;;;;13.52;2.58;;;;;;;4.67;69.51;103365.19;4773888;29;20054;-52
2022/02/26 00:11:19;;;;;;;12.23;2.83;;;;;;;4.61;69.50;103354.38;4768529;29;20633;-55
2022/02/26 00:13:44;;;;;;;10.98;2.78;;;;;;;4.63;69.60;103365.75;4773235;29;20175;-54
2022/02/26 00:16:10;;;;;;;15.60;3.40;;;;;;;4.68;69.48;103367.91;4774081;29;20466;-51
2022/02/26 00:18:35;;;;;;;10.80;3.10;;;;;;;4.66;70.26;103365.97;4771023;29;20517;-52
2022/02/26 00:21:01;;;;;;;10.90;3.05;;;;;;;4.62;70.17;103362.25;4770832;29;20057;-52
2022/02/26 00:23:26;;;;;;;14.85;3.15;;;;;;;4.54;70.31;103371.09;4778207;29;20054;-52
2022/02/26 00:25:51;;;;;;;11.90;3.03;;;;;;;4.47;69.85;103369.72;4770019;29;20940;-51
2022/02/26 00:28:17;;;;;;;11.20;2.80;;;;;;;4.40;69.59;103382.94;4775466;29;20050;-53
2022/02/26 00:30:42;;;;;;;13.00;3.65;;;;;;;4.40;69.92;103387.19;4767312;29;20039;-54
2022/02/26 00:33:08;;;;;;;19.15;3.30;;;;;;;4.48;70.54;103389.59;4774405;29;20658;-52
2022/02/26 00:35:33;;;;;;;13.82;2.92;;;;;;;4.54;70.73;103380.53;4771821;29;20151;-56
2022/02/26 00:38:00;;;;;;;11.98;3.00;;;;;;;4.53;70.43;103373.53;4772134;29;20129;-55
2022/02/26 00:40:25;;;;;;;13.88;3.08;;;;;;;4.49;69.94;103377.59;4777248;29;20291;-53
2022/02/26 00:42:51;;;;;;;11.55;2.75;;;;;;;4.48;70.01;103374.09;4778091;29;20464;-51
2022/02/26 00:45:17;;;;;;;11.23;2.50;;;;;;;4.47;70.20;103381.72;4767552;29;21669;-53
2022/02/26 00:47:42;;;;;;;14.20;3.28;;;;;;;4.46;70.19;103378.25;4773788;29;20592;-53
2022/02/26 00:50:08;;;;;;;10.00;2.53;;;;;;;4.39;70.47;103382.84;4775809;29;20043;-54
2022/02/26 00:52:34;;;;;;;14.63;2.72;;;;;;;4.33;70.50;103383.22;4777343;29;20054;-53
2022/02/26 00:55:19;;;;;;;9.80;2.50;;;;;;;4.30;70.12;103382.09;4770830;29;20586;-56
2022/02/26 00:57:45;;;;;;;12.63;2.97;;;;;;;4.27;69.50;103384.44;4776631;29;20062;-53
2022/02/26 01:00:11;;;;;;;14.60;2.90;;;;;;;4.19;70.29;103382.94;4774233;29;20147;-54
2022/02/26 01:02:37;;;;;;;10.77;2.95;;;;;;;4.13;70.35;103382.47;4776459;29;20053;-55
2022/02/26 01:05:03;;;;;;;11.65;3.10;;;;;;;4.05;69.70;103379.25;4767096;29;20047;-50
2022/02/26 01:07:28;;;;;;;11.80;3.00;;;;;;;4.06;69.51;103376.81;4773333;29;20593;-56
2022/02/26 01:09:54;;;;;;;14.57;3.25;;;;;;;4.00;70.37;103376.31;4773860;29;20046;-53
2022/02/26 01:12:19;;;;;;;8.80;2.58;;;;;;;3.95;69.99;103379.31;4773912;29;20630;-55
2022/02/26 01:14:45;;;;;;;11.80;2.83;;;;;;;3.88;70.48;103377.94;4786909;29;20057;-54
2022/02/26 01:17:13;;;;;;;12.25;3.58;;;;;;;3.85;70.52;103376.75;4766930;29;20578;-55
2022/02/26 01:19:40;;;;;;;12.60;2.80;;;;;;;3.82;70.94;103367.13;4772925;29;20400;-53
2022/02/26 01:22:05;;;;;;;9.45;2.63;;;;;;;3.79;70.24;103365.94;4771906;29;20038;-51
2022/02/26 01:24:31;;;;;;;7.50;2.53;;;;;;;3.82;70.05;103368.78;4778560;29;20058;-53
2022/02/26 01:26:56;;;;;;;9.73;2.53;;;;;;;3.77;69.94;103368.44;4773588;29;20598;-52
2022/02/26 01:29:22;;;;;;;10.00;2.80;;;;;;;3.76;69.94;103364.03;4774575;29;20042;-54
2022/02/26 01:31:47;;;;;;;10.48;2.50;;;;;;;3.79;70.14;103355.63;4775653;29;20057;-54
2022/02/26 01:34:12;;;;;;;10.52;2.58;;;;;;;3.78;70.05;103365.03;4774467;29;20697;-52
2022/02/26 01:36:38;;;;;;;13.30;2.78;;;;;;;3.83;69.80;103366.34;4779238;29;20051;-53
2022/02/26 01:39:10;;;;;;;12.38;2.97;;;;;;;3.77;70.66;103364.94;4768988;29;20578;-54
2022/02/26 01:41:36;;;;;;;11.25;2.97;;;;;;;3.75;70.35;103367.38;4775760;29;20061;-53
2022/02/26 01:44:02;;;;;;;14.75;3.03;;;;;;;3.78;70.33;103369.34;4780020;29;20050;-51
2022/02/26 01:46:27;;;;;;;11.27;3.00;;;;;;;3.87;71.09;103365.78;4769275;29;20530;-54
2022/02/26 01:48:53;;;;;;;14.95;2.95;;;;;;;3.91;71.22;103366.94;4774476;29;20062;-53
2022/02/26 01:51:19;;;;;;;13.30;3.17;;;;;;;3.98;70.41;103379.53;4770427;29;21514;-52
2022/02/26 01:53:45;;;;;;;13.75;3.10;;;;;;;3.99;70.39;103396.84;4768137;29;20030;-54
2022/02/26 01:56:11;;;;;;;14.60;3.55;;;;;;;3.96;70.66;103404.34;4772122;29;20597;-53
2022/02/26 01:58:38;;;;;;;13.35;3.47;;;;;;;3.92;70.56;103398.03;4774321;29;20130;-52
2022/02/26 02:01:04;;;;;;;11.20;3.13;;;;;;;3.87;70.50;103398.44;4769199;29;20461;-53
2022/02/26 02:03:30;;;;;;;11.07;2.92;;;;;;;3.85;70.50;103400.88;4773568;29;20702;-51
2022/02/26 02:05:56;;;;;;;14.38;2.90;;;;;;;3.84;70.45;103391.34;4775445;29;20073;-54
2022/02/26 02:08:22;;;;;;;11.93;3.17;;;;;;;3.79;70.34;103395.22;4778734;29;20042;-53
2022/02/26 02:10:50;;;;;;;6.03;2.65;;;;;;;3.79;69.59;103384.91;4771917;29;20047;-54
2022/02/26 02:13:15;;;;;;;11.25;3.00;;;;;;;3.78;70.14;103379.66;4765800;29;20300;-53
2022/02/26 02:15:42;;;;;;;13.70;3.63;;;;;;;3.73;70.21;103370.59;4771567;29;20064;-51
2022/02/26 02:18:10;;;;;;;12.43;3.28;;;;;;;3.67;70.08;103371.03;4767124;29;20058;-51
2022/02/26 02:20:35;;;;;;;12.02;3.40;;;;;;;3.69;70.17;103377.22;4773184;29;20069;-53
2022/02/26 02:23:01;;;;;;;14.25;4.22;;;;;;;3.74;70.87;103393.06;4764693;29;20481;-55
2022/02/26 02:25:30;;;;;;;10.90;4.28;;;;;;;3.83;70.49;103392.16;4777758;29;20086;-53
2022/02/26 02:27:56;;;;;;;12.20;4.07;;;;;;;3.84;70.98;103390.47;4774486;29;20467;-54
2022/02/26 02:30:26;;;;;;;10.40;3.70;;;;;;;3.83;70.35;103394.72;4776584;29;20179;-53
2022/02/26 02:32:54;;;;;;;11.93;4.43;;;;;;;3.83;70.85;103392.16;4771647;29;20054;-56
2022/02/26 02:35:35;;;;;;;15.60;4.85;;;;;;;3.79;70.51;103395.22;4771896;29;20062;-52
2022/02/26 02:38:06;;;;;;;13.27;4.72;;;;;;;3.69;70.93;103390.13;4767365;29;20516;-50
2022/02/26 02:40:31;;;;;;;12.80;4.93;;;;;;;3.71;70.50;103395.41;4776587;29;20110;-53
2022/02/26 02:42:57;;;;;;;17.58;5.45;;;;;;;3.78;70.23;103410.63;4773547;29;20054;-59
2022/02/26 02:45:22;;;;;;;19.63;5.60;;;;;;;3.76;70.32;103410.47;4781648;29;20593;-53
2022/02/26 02:47:48;;;;;;;15.27;5.28;;;;;;;3.73;70.20;103406.72;4774548;29;20081;-51
2022/02/26 02:50:15;;;;;;;16.63;5.00;;;;;;;3.67;70.35;103408.03;4776523;29;20065;-54
2022/02/26 02:52:42;;;;;;;17.98;5.63;;;;;;;3.66;70.63;103418.22;4774097;29;20051;-53
2022/02/26 02:55:08;;;;;;;22.33;5.82;;;;;;;3.67;71.42;103426.09;4773615;29;20469;-52
2022/02/26 02:57:33;;;;;;;14.63;5.50;;;;;;;3.63;70.46;103426.63;4773004;29;20069;-52
2022/02/26 02:59:59;;;;;;;13.32;5.28;;;;;;;3.57;70.98;103423.56;4775958;29;20043;-53
2022/02/26 03:02:24;;;;;;;13.18;5.32;;;;;;;3.52;70.50;103422.28;4773940;29;20058;-53
2022/02/26 03:04:49;;;;;;;14.60;5.07;;;;;;;3.47;70.47;103417.53;4775085;29;20042;-51
2022/02/26 03:07:16;;;;;;;15.05;5.80;;;;;;;3.42;71.19;103417.13;4767612;29;20063;-54
2022/02/26 03:09:42;;;;;;;12.50;4.78;;;;;;;3.40;69.91;103418.69;4774997;29;20158;-52
2022/02/26 03:12:07;;;;;;;16.30;5.70;;;;;;;3.41;70.07;103429.91;4771442;29;20400;-55
2022/02/26 03:14:33;;;;;;;16.92;5.20;;;;;;;3.40;70.38;103425.53;4774319;29;20070;-55
2022/02/26 03:16:58;;;;;;;12.00;4.97;;;;;;;3.36;70.39;103429.50;4764189;29;20654;-59
2022/02/26 03:19:24;;;;;;;14.38;4.93;;;;;;;3.31;69.96;103420.50;4767000;29;20062;-51
2022/02/26 03:21:49;;;;;;;13.30;4.80;;;;;;;3.29;70.75;103422.06;4775438;29;20504;-50
2022/02/26 03:24:15;;;;;;;14.80;4.65;;;;;;;3.29;70.15;103429.81;4769740;29;20502;-52
2022/02/26 03:26:41;;;;;;;16.15;5.75;;;;;;;3.32;70.67;103432.63;4773959;29;20470;-51
2022/02/26 03:29:07;;;;;;;17.02;5.40;;;;;;;3.34;70.52;103436.22;4770792;29;20107;-51
2022/02/26 03:31:34;;;;;;;17.25;5.30;;;;;;;3.31;70.73;103435.06;4773607;29;20157;-51
2022/02/26 03:33:59;;;;;;;11.05;4.32;;;;;;;3.30;70.48;103444.47;4776057;29;20172;-54
2022/02/26 03:36:27;;;;;;;13.73;5.10;;;;;;;3.32;70.82;103449.75;4777619;29;20531;-50
2022/02/26 03:38:54;;;;;;;13.75;5.18;;;;;;;3.32;70.83;103442.03;4770467;29;20057;-52
2022/02/26 03:41:19;;;;;;;16.35;4.78;;;;;;;3.33;70.70;103449.00;4767963;29;20059;-52
2022/02/26 03:43:46;;;;;;;20.38;5.30;;;;;;;3.31;70.52;103456.59;4770376;29;20433;-54
2022/02/26 03:46:12;;;;;;;11.05;4.50;;;;;;;3.31;70.34;103456.59;4777242;29;20648;-51
2022/02/26 03:48:37;;;;;;;19.00;5.22;;;;;;;3.25;70.36;103450.91;4764779;29;20047;-52
2022/02/26 03:51:05;;;;;;;19.05;4.90;;;;;;;3.26;70.67;103456.22;4766424;29;20701;-55
2022/02/26 03:53:31;;;;;;;16.52;4.97;;;;;;;3.33;70.42;103462.78;4774872;29;20510;-53
2022/02/26 03:55:58;;;;;;;17.92;5.63;;;;;;;3.26;70.77;103460.47;4769808;29;20417;-51
2022/02/26 03:58:24;;;;;;;13.63;4.43;;;;;;;3.23;71.17;103463.66;4772907;29;20432;-54
2022/02/26 04:00:49;;;;;;;14.95;4.50;;;;;;;3.30;70.56;103464.19;4767958;29;20039;-53
2022/02/26 04:03:14;;;;;;;12.63;4.50;;;;;;;3.32;71.33;103460.06;4768396;29;20078;-52
2022/02/26 04:05:40;;;;;;;18.60;4.53;;;;;;;3.32;71.04;103462.66;4776454;29;20053;-55
2022/02/26 04:08:05;;;;;;;14.00;3.92;;;;;;;3.35;70.65;103466.41;4773528;29;20130;-51
2022/02/26 04:10:31;;;;;;;14.07;4.35;;;;;;;3.33;70.27;103464.47;4776103;29;20495;-51
2022/02/26 04:12:56;;;;;;;13.23;4.00;;;;;;;3.33;70.93;103461.88;4765717;29;20050;-51
2022/02/26 04:15:22;;;;;;;16.42;4.07;;;;;;;3.37;70.89;103464.84;4778206;29;20054;-55
2022/02/26 04:17:47;;;;;;;15.57;3.78;;;;;;;3.43;71.31;103470.50;4774714;29;20047;-53
2022/02/26 04:20:12;;;;;;;13.55;4.20;;;;;;;3.46;71.63;103457.88;4774790;29;20050;-55
2022/02/26 04:22:38;;;;;;;15.20;3.80;;;;;;;3.42;71.48;103455.81;4770893;29;20511;-54
2022/02/26 04:25:04;;;;;;;9.20;3.40;;;;;;;3.44;70.89;103468.81;4762696;29;20049;-53
2022/02/26 04:27:29;;;;;;;13.68;3.92;;;;;;;3.50;70.90;103466.75;4772028;29;20054;-52
2022/02/26 04:29:54;;;;;;;16.30;4.38;;;;;;;3.42;70.96;103463.53;4772733;29;20286;-51
2022/02/26 04:32:20;;;;;;;12.00;3.67;;;;;;;3.36;71.17;103470.75;4774423;29;20151;-51
2022/02/26 04:34:45;;;;;;;13.52;3.80;;;;;;;3.38;70.54;103474.38;4772838;29;20456;-53
2022/02/26 04:37:10;;;;;;;14.80;3.72;;;;;;;3.37;71.07;103477.72;4767082;29;20092;-53
2022/02/26 04:39:36;;;;;;;11.88;3.60;;;;;;;3.34;70.45;103472.34;4764113;29;20050;-54
2022/02/26 04:42:01;;;;;;;14.02;4.28;;;;;;;3.48;71.19;103474.34;4774711;29;20482;-55
2022/02/26 04:44:27;;;;;;;12.85;4.05;;;;;;;3.58;71.01;103476.94;4767074;29;20085;-53
2022/02/26 04:46:52;;;;;;;15.23;4.30;;;;;;;3.55;71.17;103475.78;4775120;29;20150;-53
2022/02/26 04:49:17;;;;;;;16.83;3.75;;;;;;;3.53;71.32;103474.75;4758652;29;20049;-51
2022/02/26 04:51:43;;;;;;;11.48;3.33;;;;;;;3.54;70.98;103469.72;4774599;29;20526;-50
2022/02/26 04:54:08;;;;;;;13.25;4.10;;;;;;;3.51;70.83;103476.31;4766889;29;20223;-53
2022/02/26 04:56:34;;;;;;;13.43;3.97;;;;;;;3.44;70.96;103471.41;4774549;29;20614;-51
2022/02/26 04:58:59;;;;;;;9.43;3.38;;;;;;;3.40;70.76;103477.09;4770740;29;20047;-51
2022/02/26 05:01:24;;;;;;;14.45;4.00;;;;;;;3.39;71.06;103483.03;4764532;29;20039;-53
2022/02/26 05:03:50;;;;;;;12.88;3.80;;;;;;;3.39;70.70;103488.19;4771816;29;20110;-52
2022/02/26 05:06:15;;;;;;;14.38;4.03;;;;;;;3.50;71.08;103489.97;4771923;29;20290;-51
2022/02/26 05:08:40;;;;;;;13.38;4.35;;;;;;;3.55;70.77;103480.94;4769514;29;20169;-54
2022/02/26 05:11:06;;;;;;;16.35;5.68;;;;;;;3.57;71.42;103480.28;4770666;29;20526;-54
2022/02/26 05:13:31;;;;;;;21.83;5.03;;;;;;;3.71;71.67;103481.44;4774801;29;20329;-53
2022/02/26 05:15:56;;;;;;;14.23;4.68;;;;;;;3.74;71.70;103483.34;4765741;29;20479;-53
2022/02/26 05:18:22;;;;;;;15.85;4.70;;;;;;;3.70;71.51;103492.53;4777745;29;20039;-54
2022/02/26 05:20:47;;;;;;;20.48;5.75;;;;;;;3.66;72.14;103493.94;4778155;29;20042;-54
2022/02/26 05:23:12;;;;;;;18.67;5.47;;;;;;;3.77;72.05;103488.78;4772541;29;20310;-54
2022/02/26 05:25:38;;;;;;;18.65;5.10;;;;;;;3.84;72.29;103501.41;4772278;29;20650;-54
2022/02/26 05:28:03;;;;;;;15.77;4.93;;;;;;;3.84;71.25;103504.88;4777180;29;20705;-54
2022/02/26 05:30:30;;;;;;;16.85;5.32;;;;;;;3.82;71.77;103516.78;4773985;29;20059;-52
2022/02/26 05:32:55;;;;;;;17.17;5.25;;;;;;;3.84;71.45;103515.19;4774745;29;20147;-52
2022/02/26 05:35:21;;;;;;;20.15;5.40;;;;;;;3.79;71.63;103520.75;4768591;29;20444;-53
2022/02/26 05:37:46;;;;;;;14.80;5.90;;;;;;;3.78;71.74;103519.84;4776942;29;20054;-50
2022/02/26 05:40:12;;;;;;;16.30;4.97;;;;;;;3.74;71.13;103514.31;4781503;29;20051;-53
2022/02/26 05:42:38;;;;;;;14.65;4.85;;;;;;;3.67;71.15;103521.53;4774559;29;20053;-56
2022/02/26 05:45:04;;;;;;;16.52;4.90;;;;;;;3.65;71.91;103527.38;4768966;29;20400;-53
2022/02/26 05:47:29;;;;;;;15.15;4.85;;;;;;;3.59;71.04;103520.03;4769923;29;20027;-53
2022/02/26 05:49:54;;;;;;;18.25;4.80;;;;;;;3.56;71.49;103517.19;4776995;29;20050;-53
2022/02/26 05:52:20;;;;;;;12.25;4.68;;;;;;;3.47;71.26;103516.44;4776902;29;20062;-52
2022/02/26 05:54:45;;;;;;;13.70;5.07;;;;;;;3.43;70.99;103522.06;4774953;29;20549;-55
2022/02/26 05:57:11;;;;;;;17.50;5.38;;;;;;;3.33;71.57;103528.91;4760664;29;20464;-53
2022/02/26 05:59:36;;;;;;;11.57;4.80;;;;;;;3.26;70.59;103540.38;4773370;29;20090;-53
2022/02/26 06:02:05;;;;;;;11.77;4.85;;;;;;;3.20;70.62;103533.03;4770051;29;20443;-52
2022/02/26 06:04:30;;;;;;;15.63;5.32;;;;;;;3.20;70.66;103537.28;4777413;29;20047;-50
2022/02/26 06:06:56;;;;;;;16.50;5.57;;;;;;;3.15;70.99;103533.41;4772202;29;20069;-53
2022/02/26 06:09:21;;;;;;;17.15;5.78;;;;;;;3.10;71.38;103534.69;4771648;29;20518;-52
2022/02/26 06:11:47;;;;;;;15.20;4.82;;;;;;;3.06;71.51;103533.50;4772335;29;20050;-54
2022/02/26 06:14:12;;;;;;;11.55;4.30;;;;;;;3.06;71.05;103532.59;4772062;29;20046;-51
2022/02/26 06:16:37;;;;;;;17.88;5.15;;;;;;;3.01;71.05;103533.91;4773159;29;20121;-54
2022/02/26 06:19:03;;;;;;;15.63;5.88;;;;;;;2.99;71.25;103543.19;4769324;29;20217;-52
2022/02/26 06:21:28;;;;;;;12.48;5.10;;;;;;;2.98;71.71;103537.13;4776086;29;21090;-52
2022/02/26 06:23:54;;;;;;;9.75;4.60;;;;;;;2.99;71.38;103543.19;4774737;29;20123;-53
2022/02/26 06:26:19;;;;;;;11.73;5.03;;;;;;;3.00;71.61;103537.25;4774905;29;20446;-53
2022/02/26 06:28:44;;;;;;;15.90;5.82;;;;;;;2.98;71.06;103539.72;4767645;29;20293;-53
2022/02/26 06:31:09;;;;;;;13.02;5.00;;;;;;;2.95;71.89;103544.56;4769801;29;20078;-54
2022/02/26 06:33:35;;;;;;;14.43;5.20;;;;;;;2.95;71.51;103547.16;4776941;29;20663;-53
2022/02/26 06:36:01;;;;;;;16.35;5.30;;;;;;;2.98;71.75;103547.44;4772879;29;20042;-52
2022/02/26 06:38:26;;;;;;;13.13;5.18;;;;;;;2.98;71.39;103546.53;4777084;29;20047;-51
2022/02/26 06:40:51;;;;;;;14.02;5.18;;;;;;;2.98;71.83;103550.00;4774517;29;20042;-51
2022/02/26 06:43:17;;;;;;;21.02;5.97;;;;;;;3.00;71.96;103555.28;4768979;29;20408;-54
2022/02/26 06:45:42;;;;;;;19.60;6.15;;;;;;;2.98;71.62;103551.69;4769424;29;20554;-55
2022/02/26 06:48:07;;;;;;;13.02;5.35;;;;;;;3.05;71.50;103551.44;4772092;29;20043;-51
2022/02/26 06:50:33;;;;;;;14.25;5.43;;;;;;;3.19;71.85;103561.25;4776804;29;20483;-53
2022/02/26 06:52:58;;;;;;;21.38;7.25;;;;;;;3.41;71.97;103564.00;4770248;29;20511;-58
2022/02/26 06:55:24;;;;;;;28.50;8.77;;;;;;;3.53;73.10;103559.88;4766360;29;20060;-54
2022/02/26 06:57:50;;;;;;;26.40;7.78;;;;;;;3.73;72.53;103569.28;4774807;29;20357;-53
2022/02/26 07:00:15;;;;;;;25.45;7.88;;;;;;;3.85;72.64;103565.13;4774277;29;20601;-52
2022/02/26 07:02:41;;;;;;;24.05;8.00;;;;;;;3.94;72.36;103569.41;4768978;29;20059;-51
2022/02/26 07:05:07;;;;;;;26.98;8.23;;;;;;;4.01;72.21;103571.72;4765650;29;20165;-53
2022/02/26 07:07:32;;;;;;;29.40;8.43;;;;;;;4.10;72.58;103571.56;4776061;29;20273;-51
2022/02/26 07:09:57;;;;;;;30.50;9.50;;;;;;;4.16;72.71;103568.56;4766011;29;20035;-53
2022/02/26 07:12:23;;;;;;;23.63;8.52;;;;;;;4.26;72.89;103574.63;4768601;29;20807;-54
2022/02/26 07:14:48;;;;;;;28.95;9.85;;;;;;;4.32;72.27;103572.56;4777060;29;20093;-53
2022/02/26 07:17:15;;;;;;;28.70;9.90;;;;;;;4.39;72.58;103574.81;4766709;29;20049;-50
2022/02/26 07:19:41;;;;;;;33.05;10.95;;;;;;;4.48;72.31;103579.84;4765937;29;20099;-54
2022/02/26 07:22:06;;;;;;;37.28;10.82;;;;;;;4.58;72.63;103582.38;4766971;29;20058;-53
2022/02/26 07:24:31;;;;;;;34.33;10.68;;;;;;;4.67;72.73;103583.13;4776171;29;20058;-52
2022/02/26 07:26:57;;;;;;;32.53;10.38;;;;;;;4.77;72.57;103585.66;4765760;29;20046;-54
2022/02/26 07:29:22;;;;;;;41.80;12.63;;;;;;;4.82;72.61;103589.50;4770127;29;20090;-52
2022/02/26 07:31:48;;;;;;;41.45;13.52;;;;;;;4.82;72.72;103592.09;4766744;29;20054;-51
2022/02/26 07:34:13;;;;;;;44.90;13.45;;;;;;;4.86;73.04;103583.84;4773209;29;20055;-54
2022/02/26 07:36:39;;;;;;;35.45;12.57;;;;;;;4.98;72.87;103588.16;4775290;29;20081;-51
2022/02/26 07:39:05;;;;;;;37.42;13.13;;;;;;;4.98;73.21;103595.91;4767659;29;20049;-52
2022/02/26 07:41:31;;;;;;;45.55;13.23;;;;;;;5.04;73.16;103593.81;4770760;29;20494;-52
2022/02/26 07:43:56;;;;;;;37.55;14.05;;;;;;;4.97;73.26;103600.19;4774699;29;20046;-50
2022/02/26 07:46:22;;;;;;;43.80;15.35;;;;;;;5.08;73.16;103594.16;4774234;29;20502;-53
2022/02/26 07:48:47;;;;;;;36.15;14.07;;;;;;;5.18;73.23;103596.72;4776582;29;20038;-50
2022/02/26 07:51:13;;;;;;;36.33;14.52;;;;;;;5.25;72.95;103591.22;4762084;29;20423;-50
2022/02/26 07:53:39;;;;;;;34.40;14.00;;;;;;;5.20;73.48;103596.81;4769601;29;20107;-50
2022/02/26 07:56:04;;;;;;;41.90;15.30;;;;;;;5.30;73.37;103596.78;4774808;29;20053;-53
2022/02/26 07:58:29;;;;;;;44.47;15.48;;;;;;;5.47;72.71;103592.91;4774667;29;20115;-51
2022/02/26 08:00:55;;;;;;;41.17;15.90;;;;;;;5.45;73.22;103594.44;4774841;29;20051;-52
2022/02/26 08:03:20;;;;;;;38.60;16.00;;;;;;;5.58;72.52;103589.44;4766913;29;20139;-51
2022/02/26 08:05:46;;;;;;;39.08;17.08;;;;;;;5.58;72.85;103595.53;4775434;29;20061;-51
2022/02/26 08:08:11;;;;;;;40.20;17.40;;;;;;;5.77;72.79;103596.94;4776406;29;20066;-51
2022/02/26 08:10:37;;;;;;;41.67;17.58;;;;;;;5.66;72.46;103591.84;4768606;29;20101;-52
2022/02/26 08:13:03;;;;;;;51.10;17.90;;;;;;;5.64;73.38;103592.50;4770782;29;20597;-53
2022/02/26 08:15:28;;;;;;;38.58;17.80;;;;;;;5.83;72.60;103598.28;4770899;29;20070;-53
2022/02/26 08:17:54;;;;;;;47.15;18.02;;;;;;;5.90;72.63;103605.78;4768050;29;20099;-49
2022/02/26 08:20:23;;;;;;;43.88;17.98;;;;;;;5.91;72.69;103599.81;4773865;29;20047;-54
2022/02/26 08:22:49;;;;;;;36.15;18.30;;;;;;;6.06;72.43;103598.38;4768762;29;20205;-52
2022/02/26 08:25:15;;;;;;;41.58;18.42;;;;;;;6.06;72.31;103597.47;4768384;29;20896;-53
2022/02/26 08:27:41;;;;;;;44.42;18.02;;;;;;;6.26;71.71;103605.03;4772415;29;20073;-51
2022/02/26 08:30:09;;;;;;;43.00;18.77;;;;;;;6.35;71.66;103607.38;4777679;29;20038;-52
2022/02/26 08:32:35;;;;;;;39.53;18.23;;;;;;;6.48;71.38;103598.03;4767853;29;20071;-50
2022/02/26 08:35:01;;;;;;;41.72;18.48;;;;;;;6.59;71.08;103605.72;4769090;29;20047;-51
2022/02/26 08:37:26;;;;;;;37.40;18.45;;;;;;;6.68;70.70;103614.16;4771091;29;20638;-57
2022/02/26 08:39:52;;;;;;;41.97;17.98;;;;;;;6.71;70.50;103610.06;4771601;29;20042;-56
2022/02/26 08:42:17;;;;;;;38.03;17.75;;;;;;;6.81;69.92;103609.97;4776213;29;20125;-51
2022/02/26 08:44:43;;;;;;;32.83;16.95;;;;;;;6.96;69.86;103599.78;4777543;29;20079;-52
2022/02/26 08:47:09;;;;;;;34.25;17.10;;;;;;;7.01;69.31;103607.91;4768870;29;20052;-54
2022/02/26 08:49:34;;;;;;;33.53;17.60;;;;;;;7.18;69.31;103604.81;4766017;29;20055;-54
2022/02/26 08:52:00;;;;;;;28.77;16.48;;;;;;;7.04;69.08;103605.53;4777106;29;20361;-52
2022/02/26 08:54:26;;;;;;;31.05;16.45;;;;;;;7.33;68.70;103604.19;4763315;29;20878;-52
2022/02/26 08:56:51;;;;;;;32.88;16.27;;;;;;;7.40;67.93;103599.41;4775516;29;20131;-50
2022/02/26 08:59:16;;;;;;;31.50;17.35;;;;;;;7.56;68.36;103610.97;4769851;29;20490;-52
2022/02/26 09:01:42;;;;;;;33.10;17.85;;;;;;;7.65;67.68;103609.00;4774502;29;20043;-52
2022/02/26 09:04:08;;;;;;;28.52;16.65;;;;;;;7.78;67.57;103607.25;4771917;29;20058;-52
2022/02/26 09:06:34;;;;;;;32.95;17.15;;;;;;;7.93;67.37;103601.38;4773460;29;20455;-50
2022/02/26 09:09:00;;;;;;;30.38;15.63;;;;;;;8.22;67.55;103611.16;4768420;29;20463;-50
2022/02/26 09:11:26;;;;;;;27.45;15.82;;;;;;;8.42;67.17;103617.66;4770218;29;20047;-54
2022/02/26 09:13:52;;;;;;;31.15;15.68;;;;;;;8.51;66.27;103613.09;4777286;29;20119;-51
2022/02/26 09:16:17;;;;;;;25.90;14.90;;;;;;;8.57;65.77;103609.97;4776459;29;20495;-49
2022/02/26 09:18:43;;;;;;;29.00;14.30;;;;;;;8.76;65.04;103608.69;4776766;29;20384;-56
2022/02/26 09:21:09;;;;;;;28.25;13.90;;;;;;;8.94;65.52;103616.75;4761868;29;20550;-51
2022/02/26 09:23:35;;;;;;;30.15;15.55;;;;;;;9.04;64.70;103608.72;4768301;29;20042;-55
2022/02/26 09:26:04;;;;;;;26.48;15.32;;;;;;;9.07;63.30;103602.81;4775267;29;20100;-52
2022/02/26 09:28:36;;;;;;;24.23;14.80;;;;;;;9.21;63.63;103600.25;4771217;29;20381;-51
2022/02/26 09:31:02;;;;;;;27.75;15.23;;;;;;;9.27;63.95;103608.44;4765753;29;20050;-52
2022/02/26 09:33:30;;;;;;;30.05;15.75;;;;;;;9.34;63.29;103613.22;4774627;29;20188;-53
2022/02/26 09:35:57;;;;;;;27.67;15.00;;;;;;;9.43;63.19;103612.91;4775955;29;20058;-53
2022/02/26 09:38:22;;;;;;;30.10;15.68;;;;;;;9.60;63.14;103611.31;4764642;29;20062;-53
2022/02/26 09:40:47;;;;;;;26.55;15.20;;;;;;;9.73;63.21;103611.28;4767757;29;20043;-50
2022/02/26 09:43:13;;;;;;;27.40;15.55;;;;;;;9.80;62.26;103607.31;4768266;29;20104;-54
2022/02/26 09:45:38;;;;;;;26.33;15.18;;;;;;;9.93;61.59;103615.97;4768536;29;20127;-51
2022/02/26 09:48:04;;;;;;;27.50;15.48;;;;;;;10.00;60.92;103617.25;4777097;29;20050;-50
2022/02/26 09:50:30;;;;;;;33.50;13.18;;;;;;;10.10;60.66;103623.06;4770927;29;20148;-50
2022/02/26 09:52:56;;;;;;;21.52;12.27;;;;;;;10.09;59.31;103612.56;4771669;29;20549;-51
2022/02/26 09:55:22;;;;;;;28.20;12.30;;;;;;;10.13;58.61;103606.69;4768293;29;20110;-50
2022/02/26 09:57:47;;;;;;;23.50;12.45;;;;;;;10.24;58.74;103613.50;4772461;29;20543;-54
2022/02/26 10:00:14;;;;;;;28.23;13.48;;;;;;;10.20;59.33;103618.41;4772591;29;20050;-53
2022/02/26 10:02:39;;;;;;;21.88;12.48;;;;;;;10.39;59.10;103616.06;4769740;29;20049;-51
2022/02/26 10:05:10;;;;;;;20.70;10.77;;;;;;;10.28;56.93;103619.78;4760349;29;20034;-52
2022/02/26 10:07:36;;;;;;;21.95;11.40;;;;;;;10.41;56.90;103622.28;4773115;29;20082;-51
2022/02/26 10:10:07;;;;;;;25.88;11.60;;;;;;;10.38;57.81;103620.38;4774730;29;20151;-51
2022/02/26 10:12:33;;;;;;;22.13;11.35;;;;;;;10.52;56.92;103624.69;4772497;29;20085;-51
2022/02/26 10:15:23;;;;;;;23.23;11.73;;;;;;;10.65;56.80;103628.00;4767949;29;20503;-54
2022/02/26 10:18:07;;;;;;;20.23;10.02;;;;;;;10.63;55.80;103624.41;4772736;29;20507;-54
2022/02/26 10:20:33;;;;;;;19.02;8.65;;;;;;;10.61;55.41;103626.94;4774100;29;20073;-54
2022/02/26 10:23:00;;;;;;;21.45;7.10;;;;;;;10.82;54.49;103628.16;4771229;29;20572;-52
2022/02/26 10:25:30;;;;;;;17.77;7.95;;;;;;;10.85;54.46;103625.72;4773321;29;20058;-52
2022/02/26 10:28:02;;;;;;;18.48;8.15;;;;;;;10.78;53.06;103625.28;4769957;29;20058;-51
2022/02/26 10:30:34;;;;;;;20.80;8.30;;;;;;;10.58;54.07;103624.16;4772507;29;20099;-58
2022/02/26 10:33:05;;;;;;;19.55;8.65;;;;;;;10.44;54.26;103622.44;4771994;29;20066;-52
2022/02/26 10:35:51;;;;;;;15.38;7.85;;;;;;;10.52;53.56;103615.97;4768798;29;20043;-53
2022/02/26 10:38:33;;;;;;;20.17;7.80;;;;;;;10.43;53.61;103613.72;4767944;29;20416;-55
2022/02/26 10:41:04;;;;;;;17.85;7.80;;;;;;;10.65;52.69;103625.41;4770154;29;20069;-50
2022/02/26 10:43:49;;;;;;;19.23;8.13;;;;;;;10.70;53.37;103626.56;4774504;29;20454;-52
2022/02/26 10:46:26;;;;;;;17.52;8.32;;;;;;;10.70;52.92;103614.41;4754572;29;20422;-55
2022/02/26 10:49:08;;;;;;;17.23;8.13;;;;;;;10.73;52.64;103618.91;4771185;29;20053;-53
2022/02/26 10:51:36;;;;;;;20.10;8.02;;;;;;;10.82;53.55;103619.41;4775205;29;20045;-54
2022/02/26 10:54:10;;;;;;;19.52;6.80;;;;;;;10.90;51.96;103621.66;4771536;29;20073;-53
2022/02/26 10:56:37;;;;;;;17.83;6.45;;;;;;;10.81;50.73;103613.28;4777457;29;20500;-52
2022/02/26 10:59:28;;;;;;;14.13;6.13;;;;;;;10.66;50.94;103615.06;4778243;29;20046;-51
2022/02/26 11:02:02;;;;;;;13.48;4.25;;;;;;;10.73;49.30;103618.91;4773767;29;20072;-53
2022/02/26 11:04:27;;;;;;;;;;;;;;;10.76;50.57;103616.47;4774918;29;20074;-53
2022/02/26 11:06:54;;;;;;;14.18;5.65;;;;;;;10.84;50.16;103602.13;4774768;29;20015;-54
2022/02/26 11:09:22;;;;;;;14.57;5.07;;;;;;;10.87;50.17;103604.91;4770320;29;20062;-53
2022/02/26 11:11:51;;;;;;;16.42;4.85;;;;;;;11.02;50.25;103607.47;4770662;29;20103;-53
2022/02/26 11:14:21;;;;;;;13.23;5.07;;;;;;;10.92;50.40;103608.66;4774950;29;20133;-54
2022/02/26 11:16:49;;;;;;;10.73;4.40;;;;;;;10.97;48.32;103602.00;4767983;29;23308;-52
2022/02/26 11:19:18;;;;;;;16.10;4.55;;;;;;;10.81;47.79;103599.34;4766537;29;20629;-51